Cutler Ridge, Florida
Current Conditions -  °F | °C
As of 12:53 PM on Thursday 30 Oct 2014 (Local Time) from KTMB Reporting Station
Broken Clouds Broken Clouds  
Wind Chill: 88°   Ceiling: 4500
Heat Index: 90°   Visibility: 10mi
Dew Point: 65°   Wind: 8mph
Humidity: 46%   Direction: 330°NNW
Pressure: 29.94"   Gusts: NA
Location:  25.59°N, 80.38°W
Report Text: KTMB 301653Z 33007KT 10SM BKN045 BKN055 31/18 A2994 RMK AO2 SLP139 T03110183
Loading
Personal Weather Stations






























Interactive Weather Map
Tropical Storm Tracking
New forecast layout! Learn more

10-Day Weather Forecast

Advertisements
Track Severe Weather on mobile